sensor_id;sensor_type;location;lat;lon;timestamp;P1;durP1;ratioP1;P2;durP2;ratioP2
10389;SDS011;5241;47.830;12.972;2023-06-22T00:02:15;11.30;;;9.27;;
10389;SDS011;5241;47.830;12.972;2023-06-22T00:04:41;11.63;;;9.23;;
10389;SDS011;5241;47.830;12.972;2023-06-22T00:07:06;12.37;;;8.40;;
10389;SDS011;5241;47.830;12.972;2023-06-22T00:09:33;16.40;;;9.43;;
10389;SDS011;5241;47.830;12.972;2023-06-22T00:11:59;14.00;;;8.97;;
10389;SDS011;5241;47.830;12.972;2023-06-22T00:14:24;12.40;;;8.73;;
10389;SDS011;5241;47.830;12.972;2023-06-22T00:16:50;11.87;;;9.00;;
10389;SDS011;5241;47.830;12.972;2023-06-22T00:19:19;14.33;;;8.77;;
10389;SDS011;5241;47.830;12.972;2023-06-22T00:21:46;11.23;;;8.77;;
10389;SDS011;5241;47.830;12.972;2023-06-22T00:24:12;13.93;;;9.30;;
10389;SDS011;5241;47.830;12.972;2023-06-22T00:26:38;13.60;;;9.83;;
10389;SDS011;5241;47.830;12.972;2023-06-22T00:29:04;12.70;;;8.87;;
10389;SDS011;5241;47.830;12.972;2023-06-22T00:31:29;13.63;;;9.53;;
10389;SDS011;5241;47.830;12.972;2023-06-22T00:33:55;12.13;;;9.07;;
10389;SDS011;5241;47.830;12.972;2023-06-22T00:36:20;12.83;;;9.33;;
10389;SDS011;5241;47.830;12.972;2023-06-22T00:38:46;11.90;;;9.07;;
10389;SDS011;5241;47.830;12.972;2023-06-22T00:41:12;13.73;;;8.80;;
10389;SDS011;5241;47.830;12.972;2023-06-22T00:43:38;15.67;;;9.43;;
10389;SDS011;5241;47.830;12.972;2023-06-22T00:46:03;15.33;;;9.90;;
10389;SDS011;5241;47.830;12.972;2023-06-22T00:48:29;14.67;;;9.60;;
10389;SDS011;5241;47.830;12.972;2023-06-22T00:50:54;12.00;;;8.40;;
10389;SDS011;5241;47.830;12.972;2023-06-22T00:53:21;12.33;;;9.13;;
10389;SDS011;5241;47.830;12.972;2023-06-22T00:55:46;12.97;;;9.27;;
10389;SDS011;5241;47.830;12.972;2023-06-22T00:58:16;12.00;;;8.57;;
10389;SDS011;5241;47.830;12.972;2023-06-22T01:00:46;15.27;;;9.40;;
10389;SDS011;5241;47.830;12.972;2023-06-22T01:03:12;12.93;;;8.70;;
10389;SDS011;5241;47.830;12.972;2023-06-22T01:05:39;15.87;;;8.73;;
10389;SDS011;5241;47.830;12.972;2023-06-22T01:16:29;15.70;;;8.80;;
10389;SDS011;5241;47.830;12.972;2023-06-22T01:18:57;13.83;;;9.27;;
10389;SDS011;5241;47.830;12.972;2023-06-22T01:21:30;12.23;;;8.73;;
10389;SDS011;5241;47.830;12.972;2023-06-22T01:27:27;12.20;;;9.10;;
10389;SDS011;5241;47.830;12.972;2023-06-22T01:30:10;16.07;;;9.60;;
10389;SDS011;5241;47.830;12.972;2023-06-22T01:32:39;9.90;;;8.73;;
10389;SDS011;5241;47.830;12.972;2023-06-22T01:35:06;13.27;;;9.23;;
10389;SDS011;5241;47.830;12.972;2023-06-22T01:37:34;13.27;;;9.43;;
10389;SDS011;5241;47.830;12.972;2023-06-22T01:40:01;12.13;;;8.87;;
10389;SDS011;5241;47.830;12.972;2023-06-22T01:42:29;18.33;;;9.33;;
10389;SDS011;5241;47.830;12.972;2023-06-22T01:44:55;13.17;;;9.03;;
10389;SDS011;5241;47.830;12.972;2023-06-22T01:47:21;12.73;;;8.63;;
10389;SDS011;5241;47.830;12.972;2023-06-22T01:49:48;14.73;;;8.97;;
10389;SDS011;5241;47.830;12.972;2023-06-22T01:52:16;12.10;;;9.33;;
10389;SDS011;5241;47.830;12.972;2023-06-22T01:54:42;16.90;;;9.40;;
10389;SDS011;5241;47.830;12.972;2023-06-22T01:57:08;14.83;;;9.60;;
10389;SDS011;5241;47.830;12.972;2023-06-22T01:59:37;11.77;;;8.90;;
10389;SDS011;5241;47.830;12.972;2023-06-22T02:02:06;13.43;;;9.63;;
10389;SDS011;5241;47.830;12.972;2023-06-22T02:04:44;13.33;;;8.97;;
10389;SDS011;5241;47.830;12.972;2023-06-22T02:07:14;13.87;;;8.93;;
10389;SDS011;5241;47.830;12.972;2023-06-22T02:09:45;16.07;;;8.77;;
10389;SDS011;5241;47.830;12.972;2023-06-22T02:12:13;17.33;;;9.30;;
10389;SDS011;5241;47.830;12.972;2023-06-22T02:14:42;10.73;;;8.87;;
10389;SDS011;5241;47.830;12.972;2023-06-22T02:17:08;13.53;;;8.87;;
10389;SDS011;5241;47.830;12.972;2023-06-22T02:19:38;12.63;;;9.33;;
10389;SDS011;5241;47.830;12.972;2023-06-22T02:22:06;11.33;;;7.87;;
10389;SDS011;5241;47.830;12.972;2023-06-22T02:24:31;11.43;;;7.07;;
10389;SDS011;5241;47.830;12.972;2023-06-22T02:26:58;12.43;;;8.27;;
10389;SDS011;5241;47.830;12.972;2023-06-22T02:29:25;16.83;;;8.17;;
10389;SDS011;5241;47.830;12.972;2023-06-22T02:31:51;11.27;;;8.10;;
10389;SDS011;5241;47.830;12.972;2023-06-22T02:34:17;10.10;;;7.93;;
10389;SDS011;5241;47.830;12.972;2023-06-22T02:36:46;11.43;;;7.70;;
10389;SDS011;5241;47.830;12.972;2023-06-22T02:39:25;12.53;;;7.70;;
10389;SDS011;5241;47.830;12.972;2023-06-22T02:41:51;15.30;;;8.00;;
10389;SDS011;5241;47.830;12.972;2023-06-22T02:44:18;12.60;;;8.00;;
10389;SDS011;5241;47.830;12.972;2023-06-22T02:46:44;14.83;;;8.87;;
10389;SDS011;5241;47.830;12.972;2023-06-22T02:49:11;13.37;;;7.57;;
10389;SDS011;5241;47.830;12.972;2023-06-22T02:51:38;11.60;;;8.00;;
10389;SDS011;5241;47.830;12.972;2023-06-22T02:54:06;16.27;;;8.50;;
10389;SDS011;5241;47.830;12.972;2023-06-22T02:56:32;14.73;;;7.30;;
10389;SDS011;5241;47.830;12.972;2023-06-22T02:58:57;14.30;;;8.60;;
10389;SDS011;5241;47.830;12.972;2023-06-22T03:01:26;13.83;;;8.17;;
10389;SDS011;5241;47.830;12.972;2023-06-22T03:03:55;14.20;;;8.23;;
10389;SDS011;5241;47.830;12.972;2023-06-22T03:06:21;12.13;;;7.73;;
10389;SDS011;5241;47.830;12.972;2023-06-22T03:08:51;17.10;;;8.40;;
10389;SDS011;5241;47.830;12.972;2023-06-22T03:11:17;10.57;;;7.60;;
10389;SDS011;5241;47.830;12.972;2023-06-22T03:13:43;11.17;;;7.27;;
10389;SDS011;5241;47.830;12.972;2023-06-22T03:16:08;12.33;;;8.00;;
10389;SDS011;5241;47.830;12.972;2023-06-22T03:18:34;11.17;;;8.50;;
10389;SDS011;5241;47.830;12.972;2023-06-22T03:21:00;12.97;;;7.80;;
10389;SDS011;5241;47.830;12.972;2023-06-22T03:23:27;10.57;;;7.83;;
10389;SDS011;5241;47.830;12.972;2023-06-22T03:25:52;11.07;;;7.67;;
10389;SDS011;5241;47.830;12.972;2023-06-22T03:28:20;8.60;;;7.50;;
10389;SDS011;5241;47.830;12.972;2023-06-22T03:30:46;10.47;;;7.57;;
10389;SDS011;5241;47.830;12.972;2023-06-22T03:33:12;12.10;;;7.70;;
10389;SDS011;5241;47.830;12.972;2023-06-22T03:35:37;12.40;;;7.77;;
10389;SDS011;5241;47.830;12.972;2023-06-22T03:38:03;10.20;;;8.00;;
10389;SDS011;5241;47.830;12.972;2023-06-22T03:40:29;12.10;;;7.57;;
10389;SDS011;5241;47.830;12.972;2023-06-22T03:42:55;13.83;;;8.43;;
10389;SDS011;5241;47.830;12.972;2023-06-22T03:45:20;14.63;;;7.87;;
10389;SDS011;5241;47.830;12.972;2023-06-22T03:47:46;13.53;;;7.70;;
10389;SDS011;5241;47.830;12.972;2023-06-22T03:50:12;12.10;;;7.90;;
10389;SDS011;5241;47.830;12.972;2023-06-22T03:52:38;10.80;;;8.10;;
10389;SDS011;5241;47.830;12.972;2023-06-22T03:55:05;12.90;;;8.43;;
10389;SDS011;5241;47.830;12.972;2023-06-22T03:57:31;11.77;;;7.93;;
10389;SDS011;5241;47.830;12.972;2023-06-22T03:59:57;9.00;;;7.57;;
10389;SDS011;5241;47.830;12.972;2023-06-22T04:02:23;10.20;;;7.57;;
10389;SDS011;5241;47.830;12.972;2023-06-22T04:04:49;13.27;;;8.53;;
10389;SDS011;5241;47.830;12.972;2023-06-22T04:07:15;11.53;;;7.90;;
10389;SDS011;5241;47.830;12.972;2023-06-22T04:09:40;15.70;;;8.33;;
10389;SDS011;5241;47.830;12.972;2023-06-22T04:12:06;10.97;;;7.83;;
10389;SDS011;5241;47.830;12.972;2023-06-22T04:14:32;10.40;;;7.77;;
10389;SDS011;5241;47.830;12.972;2023-06-22T04:16:58;12.37;;;8.37;;
10389;SDS011;5241;47.830;12.972;2023-06-22T04:19:23;10.43;;;8.37;;
10389;SDS011;5241;47.830;12.972;2023-06-22T04:21:49;12.87;;;7.57;;
10389;SDS011;5241;47.830;12.972;2023-06-22T04:24:14;11.30;;;8.40;;
10389;SDS011;5241;47.830;12.972;2023-06-22T04:26:40;12.53;;;8.40;;
10389;SDS011;5241;47.830;12.972;2023-06-22T04:29:07;11.50;;;8.20;;
10389;SDS011;5241;47.830;12.972;2023-06-22T04:31:33;10.70;;;8.07;;
10389;SDS011;5241;47.830;12.972;2023-06-22T04:34:03;10.90;;;8.20;;
10389;SDS011;5241;47.830;12.972;2023-06-22T04:36:36;14.40;;;8.17;;
10389;SDS011;5241;47.830;12.972;2023-06-22T04:39:09;14.00;;;8.00;;
10389;SDS011;5241;47.830;12.972;2023-06-22T04:41:39;8.93;;;7.77;;
10389;SDS011;5241;47.830;12.972;2023-06-22T04:44:11;10.77;;;8.20;;
10389;SDS011;5241;47.830;12.972;2023-06-22T04:46:37;13.70;;;7.60;;
10389;SDS011;5241;47.830;12.972;2023-06-22T04:49:07;11.73;;;7.23;;
10389;SDS011;5241;47.830;12.972;2023-06-22T04:51:37;13.00;;;8.17;;
10389;SDS011;5241;47.830;12.972;2023-06-22T04:54:04;11.67;;;7.90;;
10389;SDS011;5241;47.830;12.972;2023-06-22T04:56:30;13.33;;;7.63;;
10389;SDS011;5241;47.830;12.972;2023-06-22T04:58:56;10.73;;;7.53;;
10389;SDS011;5241;47.830;12.972;2023-06-22T05:01:22;10.40;;;7.70;;
10389;SDS011;5241;47.830;12.972;2023-06-22T05:03:48;10.80;;;7.43;;
10389;SDS011;5241;47.830;12.972;2023-06-22T05:06:14;15.53;;;7.93;;
10389;SDS011;5241;47.830;12.972;2023-06-22T05:08:40;17.37;;;8.10;;
10389;SDS011;5241;47.830;12.972;2023-06-22T05:11:06;16.60;;;7.30;;
10389;SDS011;5241;47.830;12.972;2023-06-22T05:13:31;14.63;;;7.77;;
10389;SDS011;5241;47.830;12.972;2023-06-22T05:15:57;12.50;;;7.53;;
10389;SDS011;5241;47.830;12.972;2023-06-22T05:18:27;13.60;;;7.10;;
10389;SDS011;5241;47.830;12.972;2023-06-22T05:20:54;14.90;;;6.50;;
10389;SDS011;5241;47.830;12.972;2023-06-22T05:23:20;12.67;;;7.17;;
10389;SDS011;5241;47.830;12.972;2023-06-22T05:25:45;15.67;;;6.80;;
10389;SDS011;5241;47.830;12.972;2023-06-22T05:28:11;11.40;;;5.83;;
10389;SDS011;5241;47.830;12.972;2023-06-22T05:30:37;10.60;;;6.20;;
10389;SDS011;5241;47.830;12.972;2023-06-22T05:33:03;9.97;;;6.10;;
10389;SDS011;5241;47.830;12.972;2023-06-22T05:35:29;13.27;;;6.20;;
10389;SDS011;5241;47.830;12.972;2023-06-22T05:37:54;10.80;;;6.00;;
10389;SDS011;5241;47.830;12.972;2023-06-22T05:40:20;12.70;;;5.67;;
10389;SDS011;5241;47.830;12.972;2023-06-22T05:42:46;9.90;;;6.00;;
10389;SDS011;5241;47.830;12.972;2023-06-22T05:45:12;11.13;;;6.00;;
10389;SDS011;5241;47.830;12.972;2023-06-22T05:47:38;12.33;;;6.20;;
10389;SDS011;5241;47.830;12.972;2023-06-22T05:50:04;12.70;;;6.17;;
10389;SDS011;5241;47.830;12.972;2023-06-22T05:52:33;10.60;;;6.50;;
10389;SDS011;5241;47.830;12.972;2023-06-22T05:55:01;14.07;;;6.93;;
10389;SDS011;5241;47.830;12.972;2023-06-22T05:57:27;11.40;;;6.30;;
10389;SDS011;5241;47.830;12.972;2023-06-22T05:59:53;10.90;;;6.07;;
10389;SDS011;5241;47.830;12.972;2023-06-22T06:02:19;11.93;;;6.33;;
10389;SDS011;5241;47.830;12.972;2023-06-22T06:04:44;9.77;;;5.80;;
10389;SDS011;5241;47.830;12.972;2023-06-22T06:07:10;10.43;;;5.70;;
10389;SDS011;5241;47.830;12.972;2023-06-22T06:09:35;10.97;;;6.70;;
10389;SDS011;5241;47.830;12.972;2023-06-22T06:12:01;15.73;;;6.30;;
10389;SDS011;5241;47.830;12.972;2023-06-22T06:14:28;10.13;;;5.50;;
10389;SDS011;5241;47.830;12.972;2023-06-22T06:16:53;10.87;;;6.27;;
10389;SDS011;5241;47.830;12.972;2023-06-22T06:19:19;10.47;;;5.70;;
10389;SDS011;5241;47.830;12.972;2023-06-22T06:21:44;11.40;;;6.17;;
10389;SDS011;5241;47.830;12.972;2023-06-22T06:24:11;13.43;;;6.50;;
10389;SDS011;5241;47.830;12.972;2023-06-22T06:26:37;10.73;;;5.97;;
10389;SDS011;5241;47.830;12.972;2023-06-22T06:29:02;11.20;;;6.20;;
10389;SDS011;5241;47.830;12.972;2023-06-22T06:31:28;9.63;;;5.90;;
10389;SDS011;5241;47.830;12.972;2023-06-22T06:33:56;10.23;;;6.50;;
10389;SDS011;5241;47.830;12.972;2023-06-22T06:36:22;12.47;;;5.90;;
10389;SDS011;5241;47.830;12.972;2023-06-22T06:38:48;14.33;;;6.03;;
10389;SDS011;5241;47.830;12.972;2023-06-22T06:41:15;10.70;;;5.63;;
10389;SDS011;5241;47.830;12.972;2023-06-22T06:43:40;12.63;;;6.30;;
10389;SDS011;5241;47.830;12.972;2023-06-22T06:46:08;11.10;;;5.87;;
10389;SDS011;5241;47.830;12.972;2023-06-22T06:48:34;13.63;;;6.13;;
10389;SDS011;5241;47.830;12.972;2023-06-22T06:50:59;10.77;;;5.77;;
10389;SDS011;5241;47.830;12.972;2023-06-22T06:53:25;12.17;;;6.23;;
10389;SDS011;5241;47.830;12.972;2023-06-22T06:55:50;13.80;;;6.20;;
10389;SDS011;5241;47.830;12.972;2023-06-22T06:58:16;11.00;;;5.57;;
10389;SDS011;5241;47.830;12.972;2023-06-22T07:00:41;11.87;;;5.50;;
10389;SDS011;5241;47.830;12.972;2023-06-22T07:03:08;10.00;;;5.97;;
10389;SDS011;5241;47.830;12.972;2023-06-22T07:05:34;10.87;;;6.30;;
10389;SDS011;5241;47.830;12.972;2023-06-22T07:08:00;12.70;;;5.90;;
10389;SDS011;5241;47.830;12.972;2023-06-22T07:10:26;8.70;;;5.30;;
10389;SDS011;5241;47.830;12.972;2023-06-22T07:12:52;10.90;;;5.80;;
10389;SDS011;5241;47.830;12.972;2023-06-22T07:15:17;11.67;;;6.07;;
10389;SDS011;5241;47.830;12.972;2023-06-22T07:17:43;13.20;;;6.27;;
10389;SDS011;5241;47.830;12.972;2023-06-22T07:20:08;10.20;;;5.37;;
10389;SDS011;5241;47.830;12.972;2023-06-22T07:22:38;11.33;;;6.20;;
10389;SDS011;5241;47.830;12.972;2023-06-22T07:25:05;12.07;;;5.87;;
10389;SDS011;5241;47.830;12.972;2023-06-22T07:27:44;10.60;;;6.20;;
10389;SDS011;5241;47.830;12.972;2023-06-22T07:30:30;13.67;;;6.07;;
10389;SDS011;5241;47.830;12.972;2023-06-22T07:32:57;11.30;;;5.53;;
10389;SDS011;5241;47.830;12.972;2023-06-22T07:35:23;9.88;;;5.95;;
10389;SDS011;5241;47.830;12.972;2023-06-22T07:37:49;10.67;;;5.50;;
10389;SDS011;5241;47.830;12.972;2023-06-22T07:40:14;10.60;;;5.67;;
10389;SDS011;5241;47.830;12.972;2023-06-22T07:42:40;11.77;;;5.78;;
10389;SDS011;5241;47.830;12.972;2023-06-22T07:45:06;11.25;;;5.68;;
10389;SDS011;5241;47.830;12.972;2023-06-22T07:47:35;10.30;;;6.07;;
10389;SDS011;5241;47.830;12.972;2023-06-22T07:50:01;13.50;;;6.22;;
10389;SDS011;5241;47.830;12.972;2023-06-22T07:52:27;9.60;;;5.70;;
10389;SDS011;5241;47.830;12.972;2023-06-22T07:54:53;16.30;;;5.90;;
10389;SDS011;5241;47.830;12.972;2023-06-22T07:57:19;8.85;;;5.40;;
10389;SDS011;5241;47.830;12.972;2023-06-22T07:59:45;8.45;;;5.50;;
10389;SDS011;5241;47.830;12.972;2023-06-22T08:02:11;10.80;;;5.60;;
10389;SDS011;5241;47.830;12.972;2023-06-22T08:04:36;11.40;;;5.80;;
10389;SDS011;5241;47.830;12.972;2023-06-22T08:07:02;10.23;;;6.20;;
10389;SDS011;5241;47.830;12.972;2023-06-22T08:09:29;12.02;;;5.88;;
10389;SDS011;5241;47.830;12.972;2023-06-22T08:11:56;10.60;;;5.82;;
10389;SDS011;5241;47.830;12.972;2023-06-22T08:14:31;14.63;;;6.40;;
10389;SDS011;5241;47.830;12.972;2023-06-22T08:16:56;10.80;;;6.35;;
10389;SDS011;5241;47.830;12.972;2023-06-22T08:19:22;16.38;;;6.85;;
10389;SDS011;5241;47.830;12.972;2023-06-22T08:21:47;11.95;;;5.85;;
10389;SDS011;5241;47.830;12.972;2023-06-22T08:24:13;14.50;;;6.13;;
10389;SDS011;5241;47.830;12.972;2023-06-22T08:26:38;14.32;;;6.25;;
10389;SDS011;5241;47.830;12.972;2023-06-22T08:29:04;14.02;;;5.75;;
10389;SDS011;5241;47.830;12.972;2023-06-22T08:31:30;12.43;;;5.68;;
10389;SDS011;5241;47.830;12.972;2023-06-22T08:33:58;13.55;;;5.85;;
10389;SDS011;5241;47.830;12.972;2023-06-22T08:36:23;11.30;;;6.40;;
10389;SDS011;5241;47.830;12.972;2023-06-22T08:38:49;11.88;;;7.15;;
10389;SDS011;5241;47.830;12.972;2023-06-22T08:41:16;13.32;;;6.07;;
10389;SDS011;5241;47.830;12.972;2023-06-22T08:43:43;12.52;;;6.57;;
10389;SDS011;5241;47.830;12.972;2023-06-22T08:46:09;12.52;;;6.63;;
10389;SDS011;5241;47.830;12.972;2023-06-22T08:48:35;13.38;;;6.05;;
10389;SDS011;5241;47.830;12.972;2023-06-22T08:51:01;10.70;;;6.40;;
10389;SDS011;5241;47.830;12.972;2023-06-22T08:53:28;17.27;;;6.63;;
10389;SDS011;5241;47.830;12.972;2023-06-22T08:55:53;12.05;;;6.82;;
10389;SDS011;5241;47.830;12.972;2023-06-22T08:58:19;11.77;;;6.53;;
10389;SDS011;5241;47.830;12.972;2023-06-22T09:00:46;13.52;;;7.07;;
10389;SDS011;5241;47.830;12.972;2023-06-22T09:03:12;9.73;;;6.20;;
10389;SDS011;5241;47.830;12.972;2023-06-22T09:05:37;15.70;;;7.53;;
10389;SDS011;5241;47.830;12.972;2023-06-22T09:08:03;13.40;;;7.68;;
10389;SDS011;5241;47.830;12.972;2023-06-22T09:10:29;11.65;;;6.55;;
10389;SDS011;5241;47.830;12.972;2023-06-22T09:12:54;13.68;;;6.78;;
10389;SDS011;5241;47.830;12.972;2023-06-22T09:15:20;13.10;;;7.00;;
10389;SDS011;5241;47.830;12.972;2023-06-22T09:17:45;16.17;;;6.75;;
10389;SDS011;5241;47.830;12.972;2023-06-22T09:20:11;11.13;;;6.55;;
10389;SDS011;5241;47.830;12.972;2023-06-22T09:22:37;13.40;;;6.47;;
10389;SDS011;5241;47.830;12.972;2023-06-22T09:25:02;10.40;;;6.05;;
10389;SDS011;5241;47.830;12.972;2023-06-22T09:27:29;15.38;;;6.03;;
10389;SDS011;5241;47.830;12.972;2023-06-22T09:29:54;13.73;;;6.55;;
10389;SDS011;5241;47.830;12.972;2023-06-22T09:32:20;10.23;;;6.38;;
10389;SDS011;5241;47.830;12.972;2023-06-22T09:34:45;14.73;;;6.40;;
10389;SDS011;5241;47.830;12.972;2023-06-22T09:37:11;12.52;;;6.72;;
10389;SDS011;5241;47.830;12.972;2023-06-22T09:39:36;10.68;;;6.50;;
10389;SDS011;5241;47.830;12.972;2023-06-22T09:42:02;11.02;;;6.82;;
10389;SDS011;5241;47.830;12.972;2023-06-22T09:44:28;10.65;;;5.70;;
10389;SDS011;5241;47.830;12.972;2023-06-22T09:46:53;15.70;;;7.20;;
10389;SDS011;5241;47.830;12.972;2023-06-22T09:49:19;12.48;;;6.65;;
10389;SDS011;5241;47.830;12.972;2023-06-22T09:51:44;12.25;;;5.97;;
10389;SDS011;5241;47.830;12.972;2023-06-22T09:54:10;11.52;;;6.43;;
10389;SDS011;5241;47.830;12.972;2023-06-22T09:56:35;12.20;;;6.13;;
10389;SDS011;5241;47.830;12.972;2023-06-22T09:59:02;14.38;;;6.30;;
10389;SDS011;5241;47.830;12.972;2023-06-22T10:01:28;10.23;;;6.30;;
10389;SDS011;5241;47.830;12.972;2023-06-22T10:03:53;13.70;;;5.90;;
10389;SDS011;5241;47.830;12.972;2023-06-22T10:06:21;10.43;;;6.40;;
10389;SDS011;5241;47.830;12.972;2023-06-22T10:08:46;12.40;;;6.68;;
10389;SDS011;5241;47.830;12.972;2023-06-22T10:11:13;11.10;;;6.45;;
10389;SDS011;5241;47.830;12.972;2023-06-22T10:13:39;13.85;;;6.47;;
10389;SDS011;5241;47.830;12.972;2023-06-22T10:16:04;14.55;;;6.80;;
10389;SDS011;5241;47.830;12.972;2023-06-22T10:18:30;10.65;;;6.68;;
10389;SDS011;5241;47.830;12.972;2023-06-22T10:20:55;9.43;;;6.20;;
10389;SDS011;5241;47.830;12.972;2023-06-22T10:23:21;11.15;;;5.93;;
10389;SDS011;5241;47.830;12.972;2023-06-22T10:25:47;13.05;;;6.65;;
10389;SDS011;5241;47.830;12.972;2023-06-22T10:28:13;9.93;;;6.50;;
10389;SDS011;5241;47.830;12.972;2023-06-22T10:30:40;13.15;;;6.78;;
10389;SDS011;5241;47.830;12.972;2023-06-22T10:33:06;16.33;;;6.57;;
10389;SDS011;5241;47.830;12.972;2023-06-22T10:35:32;9.65;;;6.03;;
10389;SDS011;5241;47.830;12.972;2023-06-22T10:37:58;11.73;;;6.18;;
10389;SDS011;5241;47.830;12.972;2023-06-22T10:40:24;14.27;;;6.63;;
10389;SDS011;5241;47.830;12.972;2023-06-22T10:42:50;10.70;;;5.97;;
10389;SDS011;5241;47.830;12.972;2023-06-22T10:45:16;7.95;;;5.35;;
10389;SDS011;5241;47.830;12.972;2023-06-22T10:47:41;11.68;;;6.65;;
10389;SDS011;5241;47.830;12.972;2023-06-22T10:50:07;14.27;;;6.78;;
10389;SDS011;5241;47.830;12.972;2023-06-22T10:52:33;12.52;;;7.30;;
10389;SDS011;5241;47.830;12.972;2023-06-22T10:54:59;10.02;;;6.15;;
10389;SDS011;5241;47.830;12.972;2023-06-22T10:57:24;12.10;;;6.85;;
10389;SDS011;5241;47.830;12.972;2023-06-22T10:59:50;20.75;;;6.28;;
10389;SDS011;5241;47.830;12.972;2023-06-22T11:02:15;11.85;;;6.80;;
10389;SDS011;5241;47.830;12.972;2023-06-22T11:04:41;12.30;;;6.57;;
10389;SDS011;5241;47.830;12.972;2023-06-22T11:07:06;10.05;;;6.43;;
10389;SDS011;5241;47.830;12.972;2023-06-22T11:09:32;10.68;;;6.88;;
10389;SDS011;5241;47.830;12.972;2023-06-22T11:11:58;14.88;;;6.72;;
10389;SDS011;5241;47.830;12.972;2023-06-22T11:14:24;11.40;;;6.55;;
10389;SDS011;5241;47.830;12.972;2023-06-22T11:16:50;16.92;;;7.32;;
10389;SDS011;5241;47.830;12.972;2023-06-22T11:19:15;14.75;;;6.82;;
10389;SDS011;5241;47.830;12.972;2023-06-22T11:21:41;12.27;;;6.47;;
10389;SDS011;5241;47.830;12.972;2023-06-22T11:24:07;11.90;;;6.80;;
10389;SDS011;5241;47.830;12.972;2023-06-22T11:26:32;11.48;;;6.80;;
10389;SDS011;5241;47.830;12.972;2023-06-22T11:28:58;12.07;;;6.57;;
10389;SDS011;5241;47.830;12.972;2023-06-22T11:31:24;9.70;;;6.15;;
10389;SDS011;5241;47.830;12.972;2023-06-22T11:33:50;12.23;;;6.75;;
10389;SDS011;5241;47.830;12.972;2023-06-22T11:36:15;9.48;;;6.65;;
10389;SDS011;5241;47.830;12.972;2023-06-22T11:38:41;10.95;;;6.70;;
10389;SDS011;5241;47.830;12.972;2023-06-22T11:41:08;11.90;;;7.03;;
10389;SDS011;5241;47.830;12.972;2023-06-22T11:43:34;9.02;;;6.85;;
10389;SDS011;5241;47.830;12.972;2023-06-22T11:46:01;9.98;;;6.25;;
10389;SDS011;5241;47.830;12.972;2023-06-22T11:48:28;11.93;;;6.57;;
10389;SDS011;5241;47.830;12.972;2023-06-22T11:50:53;12.27;;;6.68;;
10389;SDS011;5241;47.830;12.972;2023-06-22T11:53:20;9.93;;;7.20;;
10389;SDS011;5241;47.830;12.972;2023-06-22T11:55:47;11.40;;;6.78;;
10389;SDS011;5241;47.830;12.972;2023-06-22T11:58:13;14.73;;;7.53;;
10389;SDS011;5241;47.830;12.972;2023-06-22T12:00:39;11.45;;;7.15;;
10389;SDS011;5241;47.830;12.972;2023-06-22T12:03:05;11.63;;;6.85;;
10389;SDS011;5241;47.830;12.972;2023-06-22T12:05:30;15.60;;;6.85;;
10389;SDS011;5241;47.830;12.972;2023-06-22T12:07:56;11.95;;;7.18;;
10389;SDS011;5241;47.830;12.972;2023-06-22T12:10:22;10.73;;;7.13;;
10389;SDS011;5241;47.830;12.972;2023-06-22T12:12:48;12.05;;;7.15;;
10389;SDS011;5241;47.830;12.972;2023-06-22T12:15:13;9.90;;;6.68;;
10389;SDS011;5241;47.830;12.972;2023-06-22T12:17:39;12.10;;;7.05;;
10389;SDS011;5241;47.830;12.972;2023-06-22T12:20:05;13.82;;;7.88;;
10389;SDS011;5241;47.830;12.972;2023-06-22T12:22:32;11.40;;;6.57;;
10389;SDS011;5241;47.830;12.972;2023-06-22T12:24:58;12.73;;;7.00;;
10389;SDS011;5241;47.830;12.972;2023-06-22T12:27:24;11.57;;;6.70;;
10389;SDS011;5241;47.830;12.972;2023-06-22T12:29:50;11.60;;;7.10;;
10389;SDS011;5241;47.830;12.972;2023-06-22T12:32:16;10.07;;;5.90;;
10389;SDS011;5241;47.830;12.972;2023-06-22T12:34:42;12.13;;;6.82;;
10389;SDS011;5241;47.830;12.972;2023-06-22T12:37:08;12.02;;;7.00;;
10389;SDS011;5241;47.830;12.972;2023-06-22T12:39:33;11.45;;;7.35;;
10389;SDS011;5241;47.830;12.972;2023-06-22T12:41:59;16.05;;;8.10;;
10389;SDS011;5241;47.830;12.972;2023-06-22T12:44:25;11.80;;;7.07;;
10389;SDS011;5241;47.830;12.972;2023-06-22T12:46:50;13.40;;;7.78;;
10389;SDS011;5241;47.830;12.972;2023-06-22T12:49:16;12.73;;;6.60;;
10389;SDS011;5241;47.830;12.972;2023-06-22T12:51:42;14.98;;;7.38;;
10389;SDS011;5241;47.830;12.972;2023-06-22T12:54:08;10.77;;;6.50;;
10389;SDS011;5241;47.830;12.972;2023-06-22T12:56:35;13.40;;;7.43;;
10389;SDS011;5241;47.830;12.972;2023-06-22T12:59:00;15.63;;;6.65;;
10389;SDS011;5241;47.830;12.972;2023-06-22T13:01:26;10.75;;;7.15;;
10389;SDS011;5241;47.830;12.972;2023-06-22T13:03:52;9.18;;;6.90;;
10389;SDS011;5241;47.830;12.972;2023-06-22T13:06:18;9.30;;;7.07;;
10389;SDS011;5241;47.830;12.972;2023-06-22T13:08:44;12.80;;;7.38;;
10389;SDS011;5241;47.830;12.972;2023-06-22T13:11:10;14.88;;;7.55;;
10389;SDS011;5241;47.830;12.972;2023-06-22T13:13:35;12.25;;;6.63;;
10389;SDS011;5241;47.830;12.972;2023-06-22T13:16:01;12.20;;;7.18;;
10389;SDS011;5241;47.830;12.972;2023-06-22T13:18:27;10.70;;;7.15;;
10389;SDS011;5241;47.830;12.972;2023-06-22T13:20:52;11.77;;;6.82;;
10389;SDS011;5241;47.830;12.972;2023-06-22T13:23:19;11.00;;;6.72;;
10389;SDS011;5241;47.830;12.972;2023-06-22T13:25:48;15.77;;;7.22;;
10389;SDS011;5241;47.830;12.972;2023-06-22T13:28:13;11.65;;;6.97;;
10389;SDS011;5241;47.830;12.972;2023-06-22T13:30:40;11.27;;;7.13;;
10389;SDS011;5241;47.830;12.972;2023-06-22T13:33:06;14.55;;;8.10;;
10389;SDS011;5241;47.830;12.972;2023-06-22T13:35:32;13.48;;;7.82;;
10389;SDS011;5241;47.830;12.972;2023-06-22T13:37:58;10.48;;;7.07;;
10389;SDS011;5241;47.830;12.972;2023-06-22T13:40:23;11.05;;;6.90;;
10389;SDS011;5241;47.830;12.972;2023-06-22T13:42:49;11.38;;;6.80;;
10389;SDS011;5241;47.830;12.972;2023-06-22T13:45:15;12.25;;;6.95;;
10389;SDS011;5241;47.830;12.972;2023-06-22T13:47:42;11.25;;;7.43;;
10389;SDS011;5241;47.830;12.972;2023-06-22T13:50:07;13.80;;;7.25;;
10389;SDS011;5241;47.830;12.972;2023-06-22T13:52:33;13.15;;;6.82;;
10389;SDS011;5241;47.830;12.972;2023-06-22T13:54:59;11.38;;;7.00;;
10389;SDS011;5241;47.830;12.972;2023-06-22T13:57:25;13.60;;;7.25;;
10389;SDS011;5241;47.830;12.972;2023-06-22T13:59:50;13.63;;;6.88;;
10389;SDS011;5241;47.830;12.972;2023-06-22T14:02:16;9.25;;;6.63;;
10389;SDS011;5241;47.830;12.972;2023-06-22T14:04:41;12.35;;;7.07;;
10389;SDS011;5241;47.830;12.972;2023-06-22T14:07:07;11.00;;;7.05;;
10389;SDS011;5241;47.830;12.972;2023-06-22T14:09:33;12.02;;;7.70;;
10389;SDS011;5241;47.830;12.972;2023-06-22T14:12:02;13.75;;;7.13;;
10389;SDS011;5241;47.830;12.972;2023-06-22T14:14:28;10.23;;;6.57;;
10389;SDS011;5241;47.830;12.972;2023-06-22T14:16:54;10.98;;;7.82;;
10389;SDS011;5241;47.830;12.972;2023-06-22T14:19:19;13.98;;;7.20;;
10389;SDS011;5241;47.830;12.972;2023-06-22T14:21:45;11.65;;;7.28;;
10389;SDS011;5241;47.830;12.972;2023-06-22T14:24:10;13.45;;;7.07;;
10389;SDS011;5241;47.830;12.972;2023-06-22T14:26:36;12.35;;;7.05;;
10389;SDS011;5241;47.830;12.972;2023-06-22T14:29:01;10.30;;;7.22;;
10389;SDS011;5241;47.830;12.972;2023-06-22T14:31:27;12.55;;;7.05;;
10389;SDS011;5241;47.830;12.972;2023-06-22T14:33:52;14.70;;;7.57;;
10389;SDS011;5241;47.830;12.972;2023-06-22T14:36:18;11.43;;;6.72;;
10389;SDS011;5241;47.830;12.972;2023-06-22T14:38:43;12.70;;;6.72;;
10389;SDS011;5241;47.830;12.972;2023-06-22T14:41:09;11.90;;;6.75;;
10389;SDS011;5241;47.830;12.972;2023-06-22T14:43:35;15.05;;;6.97;;